Aeroporto :
LOGIN :

Iscrizione | Disclaimer

   EN    FR    IT 

 










Sommario :    VFR   VFR Marginale   IFR   IFR Intensivo   IFR Molto Intensivo
Visibilità : 
Base nubi : 
>= 8 km
>= 3000ft
5 / 8 km
1000 / 3000 ft
1500m / 5 km
500 / 1000 ft
800 / 1500m
200 / 500 ft
< 800m
< 200 ft
Simboli :   Temporali  Nebbia  Neve Forte  Precipitazioni Forti  Vento > 20 kt
SIGMETs :   Varie  Temporali  Ghiacco  Turbolenza  Onda orograficha  Ceneri Vulcaniche






- Altitudine del aeroporto : 1213 ft
- Codice IATA : SCQ


LEST - Santiago de Compostela

ULTIMO METAR :
  • 020930Z 04006KT 360V080 9999 FEW015 08/06 Q1023 NOSIG

METARs OBSOLETI :
  • 020900Z VRB01KT 9999 FEW008 08/06 Q1023 NOSIG
  • 020830Z 06006KT 020V110 9999 FEW008 08/07 Q1022 NOSIG
  • 020800Z 03008KT 360V070 9999 FEW008 08/07 Q1022 NOSIG
  • 020730Z 04008KT 010V070 9999 SCT007 08/07 Q1022 NOSIG
  • 020700Z 04008KT 360V070 9999 SCT007 08/07 Q1022 NOSIG

TAF AMD TAF LEST
Valido dal 02 a 06 ore il 03 a 06 ore UTC


020629Z 0206/0306 03009KT 9999 SCT015 TX11/0214Z TN03/0302Z
PROB30
TEMPO 0206/0208 4000 BR BKN008



MetMap, La meteo Aeronautica in un colpo d'occhio ! - Copyright ORBIFLY Dicembre 2007 - Disclaimer

ORBIFLY MET'MAP TEAM :

Programmazione e sviluppo : Alexandra Zaïnal
Concezione : Baudouin d'Aumeries
Aiuto per la programmazione : Marc-Olivier Méhu
Supporto tecnico e logistico : Manuel Goepfert
Aiuto per la traduzione : Arnaldo La Scala

Contatto : metmap@orbifly.com




FONTI E CREDITI :

   NOAA